createdAt,value
2018-02-15T00:01:34.068Z,16.87
2018-02-15T00:04:01.021Z,17.80
2018-02-15T00:06:27.969Z,17.40
2018-02-15T00:08:54.834Z,19.20
2018-02-15T00:11:21.710Z,18.70
2018-02-15T00:13:48.652Z,16.73
2018-02-15T00:16:15.519Z,17.37
2018-02-15T00:18:42.456Z,18.00
2018-02-15T00:21:09.308Z,18.53
2018-02-15T00:23:36.282Z,17.53
2018-02-15T00:26:03.421Z,18.90
2018-02-15T00:28:30.505Z,18.47
2018-02-15T00:30:57.472Z,19.33
2018-02-15T00:33:24.340Z,19.23
2018-02-15T00:35:51.273Z,19.87
2018-02-15T00:38:18.152Z,20.57
2018-02-15T00:40:45.020Z,19.73
2018-02-15T00:43:11.950Z,18.93
2018-02-15T00:45:38.829Z,20.50
2018-02-15T00:48:05.712Z,19.23
2018-02-15T00:50:32.557Z,18.03
2018-02-15T00:52:59.424Z,20.90
2018-02-15T00:55:26.718Z,19.03
2018-02-15T00:57:54.017Z,19.47
2018-02-15T01:00:20.902Z,19.13
2018-02-15T01:02:47.823Z,21.00
2018-02-15T01:05:14.708Z,21.27
2018-02-15T01:07:41.576Z,20.60
2018-02-15T01:10:08.432Z,20.53
2018-02-15T01:12:35.368Z,20.73
2018-02-15T01:15:02.580Z,20.20
2018-02-15T01:17:29.435Z,20.00
2018-02-15T01:19:56.704Z,21.37
2018-02-15T01:22:24.013Z,18.97
2018-02-15T01:24:50.875Z,21.57
2018-02-15T01:27:17.742Z,21.37
2018-02-15T01:29:44.693Z,20.97
2018-02-15T01:32:11.541Z,20.43
2018-02-15T01:34:38.508Z,20.40
2018-02-15T01:37:05.372Z,21.57
2018-02-15T01:39:32.258Z,21.80
2018-02-15T01:41:59.109Z,20.30
2018-02-15T01:44:25.956Z,21.60
2018-02-15T01:46:52.840Z,21.87
2018-02-15T01:49:19.685Z,20.37
2018-02-15T01:51:46.600Z,20.50
2018-02-15T01:54:13.561Z,21.13
2018-02-15T01:56:40.420Z,21.63
2018-02-15T01:59:07.288Z,24.03
2018-02-15T02:01:34.174Z,22.70
2018-02-15T02:04:01.106Z,21.10
2018-02-15T02:06:27.948Z,21.90
2018-02-15T02:08:54.920Z,22.10
2018-02-15T02:11:21.776Z,21.70
2018-02-15T02:13:48.729Z,22.63
2018-02-15T02:16:15.618Z,22.00
2018-02-15T02:18:42.471Z,21.30
2018-02-15T02:21:09.396Z,22.40
2018-02-15T02:23:36.284Z,23.67
2018-02-15T02:26:03.268Z,22.80
2018-02-15T02:28:30.120Z,22.30
2018-02-15T02:30:56.978Z,23.20
2018-02-15T02:33:23.865Z,24.07
2018-02-15T02:35:51.246Z,22.57
2018-02-15T02:38:18.104Z,21.30
2018-02-15T02:40:45.073Z,20.63
2018-02-15T02:43:11.933Z,23.53
2018-02-15T02:45:38.895Z,23.60
2018-02-15T02:48:05.861Z,22.30
2018-02-15T02:50:32.821Z,23.47
2018-02-15T02:52:59.767Z,23.63
2018-02-15T02:55:26.722Z,22.73
2018-02-15T02:57:53.601Z,25.30
2018-02-15T03:00:20.560Z,23.23
2018-02-15T03:02:47.500Z,23.70
2018-02-15T03:05:14.364Z,23.53
2018-02-15T03:07:41.236Z,23.13
2018-02-15T03:10:08.102Z,23.93
2018-02-15T03:12:35.037Z,21.47
2018-02-15T03:15:01.996Z,23.53
2018-02-15T03:17:28.858Z,22.43
2018-02-15T03:19:55.815Z,22.27
2018-02-15T03:22:22.692Z,20.87
2018-02-15T03:24:49.622Z,22.00
2018-02-15T03:27:16.468Z,21.37
2018-02-15T03:29:43.446Z,22.50
2018-02-15T03:32:10.292Z,21.63
2018-02-15T03:34:37.175Z,20.80
2018-02-15T03:37:04.052Z,20.57
2018-02-15T03:39:30.959Z,21.33
2018-02-15T03:41:57.802Z,20.90
2018-02-15T03:44:25.096Z,21.83
2018-02-15T03:46:51.977Z,22.67
2018-02-15T03:49:18.830Z,20.17
2018-02-15T03:51:45.681Z,19.80
2018-02-15T03:54:12.573Z,19.47
2018-02-15T03:56:39.415Z,21.93
2018-02-15T03:59:06.392Z,20.17
2018-02-15T04:01:33.702Z,20.80
2018-02-15T04:04:00.556Z,21.20
2018-02-15T04:06:27.517Z,18.33
2018-02-15T04:08:54.392Z,18.83
2018-02-15T04:11:21.240Z,20.77
2018-02-15T04:13:48.195Z,20.20
2018-02-15T04:16:15.157Z,19.23
2018-02-15T04:18:42.000Z,17.93
2018-02-15T04:21:08.869Z,18.23
2018-02-15T04:23:35.776Z,19.93
2018-02-15T04:26:02.700Z,20.27
2018-02-15T04:28:29.644Z,20.60
2018-02-15T04:30:56.520Z,18.53
2018-02-15T04:33:23.560Z,18.43
2018-02-15T04:35:50.412Z,19.33
2018-02-15T04:38:17.373Z,17.33
2018-02-15T04:40:44.224Z,18.83
2018-02-15T04:43:11.093Z,20.03
2018-02-15T04:45:38.056Z,18.37
2018-02-15T04:48:04.965Z,19.53
2018-02-15T04:50:32.272Z,18.27
2018-02-15T04:52:59.122Z,19.43
2018-02-15T04:55:25.997Z,19.10
2018-02-15T04:57:52.933Z,18.67
2018-02-15T05:00:19.776Z,17.93
2018-02-15T05:02:47.172Z,19.57
2018-02-15T05:05:14.133Z,18.27
2018-02-15T05:07:41.107Z,18.40
2018-02-15T05:10:07.969Z,19.53
2018-02-15T05:12:34.918Z,19.10
2018-02-15T05:15:01.868Z,17.60
2018-02-15T05:17:28.823Z,19.13
2018-02-15T05:19:55.667Z,18.03
2018-02-15T05:22:22.561Z,18.33
2018-02-15T05:24:49.509Z,18.13
2018-02-15T05:27:16.387Z,19.00
2018-02-15T05:29:43.344Z,19.50
2018-02-15T05:32:10.278Z,19.63
2018-02-15T05:34:37.456Z,19.87
2018-02-15T05:37:04.431Z,19.30
2018-02-15T05:39:31.284Z,18.80
2018-02-15T05:41:58.219Z,19.57
2018-02-15T05:44:25.964Z,17.03
2018-02-15T05:46:53.217Z,18.80
2018-02-15T05:49:20.485Z,18.17
2018-02-15T05:51:47.780Z,19.80
2018-02-15T05:54:15.045Z,22.07
2018-02-15T05:56:41.888Z,18.70
2018-02-15T05:59:08.864Z,21.67
2018-02-15T06:01:36.134Z,19.97
2018-02-15T06:04:03.102Z,18.53
2018-02-15T06:06:30.064Z,18.30
2018-02-15T06:08:56.928Z,18.13
2018-02-15T06:11:23.965Z,18.33
2018-02-15T06:13:51.244Z,18.00
2018-02-15T06:16:18.111Z,18.53
2018-02-15T06:18:44.952Z,18.30
2018-02-15T06:21:11.873Z,17.73
2018-02-15T06:23:39.192Z,18.10
2018-02-15T06:26:06.071Z,20.73
2018-02-15T06:28:33.473Z,18.30
2018-02-15T06:31:00.715Z,16.47
2018-02-15T06:33:27.646Z,18.50
2018-02-15T06:35:54.506Z,17.97
2018-02-15T06:38:21.458Z,18.53
2018-02-15T06:40:48.408Z,18.33
2018-02-15T06:43:15.384Z,16.90
2018-02-15T06:45:42.329Z,17.40
2018-02-15T06:48:09.684Z,17.77
2018-02-15T06:50:36.545Z,18.70
2018-02-15T06:53:03.398Z,18.80
2018-02-15T06:55:30.302Z,17.43
2018-02-15T06:57:57.248Z,18.50
2018-02-15T07:00:24.101Z,18.30
2018-02-15T07:02:51.067Z,18.50
2018-02-15T07:05:17.996Z,19.53
2018-02-15T07:07:44.865Z,19.87
2018-02-15T07:10:11.858Z,19.23
2018-02-15T07:12:38.870Z,18.03
2018-02-15T07:15:05.749Z,18.97
2018-02-15T07:17:32.623Z,18.43
2018-02-15T07:19:59.568Z,19.40
2018-02-15T07:22:26.515Z,20.63
2018-02-15T07:24:53.424Z,19.30
2018-02-15T07:27:20.263Z,19.60
2018-02-15T07:29:47.116Z,18.70
2018-02-15T07:32:14.040Z,18.50
2018-02-15T07:34:40.996Z,17.07
2018-02-15T07:37:07.992Z,17.73
2018-02-15T07:39:35.332Z,17.23
2018-02-15T07:42:02.284Z,18.67
2018-02-15T07:44:29.138Z,19.27
2018-02-15T07:46:56.004Z,19.00
2018-02-15T07:49:22.887Z,18.53
2018-02-15T07:51:49.738Z,18.93
2018-02-15T07:54:16.629Z,18.83
2018-02-15T07:56:43.872Z,19.50
2018-02-15T07:59:10.760Z,18.23
2018-02-15T08:01:38.028Z,18.30
2018-02-15T08:04:05.376Z,17.73
2018-02-15T08:06:32.300Z,18.57
2018-02-15T08:08:59.193Z,17.77
2018-02-15T08:11:26.045Z,18.50
2018-02-15T08:13:52.964Z,18.27
2018-02-15T08:16:19.936Z,18.20
2018-02-15T08:18:46.801Z,18.70
2018-02-15T08:21:13.734Z,18.97
2018-02-15T08:23:40.622Z,19.90
2018-02-15T08:26:07.485Z,19.27
2018-02-15T08:28:34.364Z,18.70
2018-02-15T08:31:01.236Z,22.40
2018-02-15T08:33:28.155Z,19.80
2018-02-15T08:35:55.042Z,20.30
2018-02-15T08:38:22.351Z,18.97
2018-02-15T08:40:49.294Z,21.67
2018-02-15T08:43:16.545Z,20.60
2018-02-15T08:45:43.424Z,21.33
2018-02-15T08:48:10.305Z,19.53
2018-02-15T08:50:37.249Z,21.80
2018-02-15T08:53:04.225Z,20.27
2018-02-15T08:55:31.173Z,20.33
2018-02-15T08:57:58.150Z,20.50
2018-02-15T09:00:25.000Z,21.00
2018-02-15T09:02:51.849Z,20.50
2018-02-15T09:05:18.725Z,22.17
2018-02-15T09:07:45.827Z,23.03
2018-02-15T09:10:13.134Z,23.13
2018-02-15T09:12:40.049Z,21.77
2018-02-15T09:15:07.336Z,21.10
2018-02-15T09:17:34.221Z,21.90
2018-02-15T09:20:01.191Z,20.23
2018-02-15T09:22:28.173Z,20.20
2018-02-15T09:24:55.028Z,21.07
2018-02-15T09:27:21.937Z,20.63
2018-02-15T09:29:48.808Z,20.50
2018-02-15T09:32:15.759Z,21.30
2018-02-15T09:34:42.713Z,19.37
2018-02-15T09:37:09.552Z,21.10
2018-02-15T09:39:36.726Z,19.57
2018-02-15T09:42:03.643Z,18.83
2018-02-15T09:44:30.568Z,19.83
2018-02-15T09:46:57.417Z,20.17
2018-02-15T09:49:24.367Z,19.20
2018-02-15T09:51:51.217Z,19.07
2018-02-15T09:54:18.089Z,19.53
2018-02-15T09:59:29.427Z,18.73
2018-02-15T10:01:56.360Z,19.20
2018-02-15T10:04:23.623Z,19.67
2018-02-15T10:06:50.494Z,19.90
2018-02-15T10:09:17.348Z,17.63
2018-02-15T10:11:44.313Z,19.40
2018-02-15T10:14:11.182Z,16.80
2018-02-15T10:16:38.065Z,18.00
2018-02-15T10:19:04.981Z,17.00
2018-02-15T10:21:31.946Z,16.87
2018-02-15T10:23:58.900Z,16.50
2018-02-15T10:26:25.804Z,15.83
2018-02-15T10:28:52.688Z,16.40
2018-02-15T10:31:19.938Z,17.70
2018-02-15T10:33:47.198Z,16.47
2018-02-15T10:36:14.070Z,17.40
2018-02-15T10:38:41.316Z,16.50
2018-02-15T10:41:08.242Z,16.17
2018-02-15T10:43:35.345Z,15.73
2018-02-15T10:46:02.648Z,15.20
2018-02-15T10:48:29.536Z,15.53
2018-02-15T10:50:56.486Z,16.43
2018-02-15T10:53:23.349Z,15.80
2018-02-15T10:55:50.201Z,16.97
2018-02-15T10:58:17.082Z,14.90
2018-02-15T11:00:43.961Z,15.03
2018-02-15T11:03:10.868Z,16.50
2018-02-15T11:05:37.793Z,14.60
2018-02-15T11:08:05.374Z,16.00
2018-02-15T11:10:32.234Z,17.10
2018-02-15T11:12:59.306Z,16.10
2018-02-15T11:15:26.167Z,17.10
2018-02-15T11:17:53.015Z,15.37
2018-02-15T11:20:19.975Z,16.50
2018-02-15T11:22:47.248Z,15.83
2018-02-15T11:25:14.100Z,15.20
2018-02-15T11:27:40.995Z,14.70
2018-02-15T11:30:07.909Z,16.27
2018-02-15T11:32:34.921Z,15.63
2018-02-15T11:35:02.298Z,17.30
2018-02-15T11:37:29.234Z,16.87
2018-02-15T11:39:56.178Z,17.90
2018-02-15T11:42:23.032Z,18.37
2018-02-15T11:44:49.909Z,17.77
2018-02-15T11:47:16.869Z,17.60
2018-02-15T11:49:43.726Z,16.70
2018-02-15T11:52:10.589Z,18.00
2018-02-15T11:54:37.487Z,18.10
2018-02-15T11:57:04.406Z,19.80
2018-02-15T11:59:31.278Z,18.63
2018-02-15T12:01:58.197Z,19.17
2018-02-15T12:04:25.107Z,17.47
2018-02-15T12:06:52.024Z,18.30
2018-02-15T12:09:18.911Z,18.33
2018-02-15T12:11:45.853Z,17.77
2018-02-15T12:14:12.682Z,18.90
2018-02-15T12:16:39.560Z,19.60
2018-02-15T12:19:06.525Z,19.37
2018-02-15T12:21:33.421Z,17.57
2018-02-15T12:24:00.765Z,19.00
2018-02-15T12:26:27.794Z,18.73
2018-02-15T12:28:54.657Z,19.13
2018-02-15T12:31:21.529Z,18.43
2018-02-15T12:33:48.557Z,20.00
2018-02-15T12:36:15.784Z,19.37
2018-02-15T12:38:42.690Z,18.83
2018-02-15T12:41:09.560Z,19.63
2018-02-15T12:43:36.449Z,20.90
2018-02-15T12:46:03.398Z,21.40
2018-02-15T12:48:30.319Z,20.80
2018-02-15T12:50:57.192Z,20.67
2018-02-15T12:53:24.144Z,22.90
2018-02-15T12:55:51.108Z,22.67
2018-02-15T12:58:17.966Z,22.53
2018-02-15T13:00:44.850Z,21.83
2018-02-15T13:03:11.789Z,22.47
2018-02-15T13:05:38.638Z,22.17
2018-02-15T13:08:05.610Z,23.07
2018-02-15T13:10:32.499Z,23.97
2018-02-15T13:13:11.686Z,23.20
2018-02-15T13:15:50.668Z,23.83
2018-02-15T13:18:17.584Z,23.60
2018-02-15T13:20:44.436Z,23.60
2018-02-15T13:23:11.306Z,24.13
2018-02-15T13:25:38.369Z,25.07
2018-02-15T13:28:16.989Z,23.57
2018-02-15T13:30:43.856Z,23.10
2018-02-15T13:33:10.720Z,24.60
2018-02-15T13:35:37.608Z,25.60
2018-02-15T13:38:04.460Z,26.77
2018-02-15T13:40:31.388Z,25.40
2018-02-15T13:42:58.265Z,25.30
2018-02-15T13:45:25.214Z,26.60
2018-02-15T13:47:52.175Z,25.50
2018-02-15T13:50:19.021Z,26.20
2018-02-15T13:52:45.992Z,23.60
2018-02-15T13:55:12.891Z,24.60
2018-02-15T13:57:39.785Z,24.17
2018-02-15T14:00:06.693Z,24.57
2018-02-15T14:02:33.628Z,24.13
2018-02-15T14:05:00.598Z,25.00
2018-02-15T14:07:27.484Z,23.60
2018-02-15T14:09:54.756Z,21.43
2018-02-15T14:12:22.069Z,23.17
2018-02-15T14:14:48.953Z,24.10
2018-02-15T14:17:15.886Z,21.90
2018-02-15T14:19:42.792Z,23.83
2018-02-15T14:22:09.720Z,23.13
2018-02-15T14:24:37.748Z,22.73
2018-02-15T14:27:04.839Z,23.17
2018-02-15T14:29:31.959Z,23.53
2018-02-15T14:31:58.871Z,23.07
2018-02-15T14:34:25.853Z,23.43
2018-02-15T14:36:52.737Z,22.20
2018-02-15T14:39:20.020Z,21.77
2018-02-15T14:41:47.270Z,21.60
2018-02-15T14:44:14.151Z,22.70
2018-02-15T14:46:41.191Z,23.40
2018-02-15T14:49:08.118Z,25.47
2018-02-15T14:51:34.980Z,22.90
2018-02-15T14:54:01.877Z,24.00
2018-02-15T14:56:29.159Z,24.40
2018-02-15T14:58:56.461Z,24.10
2018-02-15T15:01:23.367Z,23.50
2018-02-15T15:03:50.616Z,25.47
2018-02-15T15:06:17.951Z,25.63
2018-02-15T15:08:44.903Z,25.70
2018-02-15T15:11:11.853Z,24.00
2018-02-15T15:13:38.813Z,24.63
2018-02-15T15:16:05.754Z,25.27
2018-02-15T15:18:32.602Z,25.27
2018-02-15T15:20:59.521Z,25.07
2018-02-15T15:23:26.478Z,24.20
2018-02-15T15:25:53.517Z,21.80
2018-02-15T15:28:20.436Z,24.07
2018-02-15T15:30:47.294Z,23.30
2018-02-15T15:33:14.175Z,26.10
2018-02-15T15:35:41.120Z,24.70
2018-02-15T15:38:08.051Z,21.90
2018-02-15T15:40:35.402Z,24.47
2018-02-15T15:43:02.336Z,25.27
2018-02-15T15:45:29.291Z,25.30
2018-02-15T15:47:56.168Z,24.77
2018-02-15T15:50:23.030Z,24.80
2018-02-15T15:52:49.908Z,23.73
2018-02-15T15:55:17.151Z,25.20
2018-02-15T15:57:44.108Z,29.10
2018-02-15T16:00:11.018Z,26.40
2018-02-15T16:02:37.888Z,24.87
2018-02-15T16:05:04.940Z,27.03
2018-02-15T16:07:32.013Z,24.90
2018-02-15T16:09:58.983Z,26.60
2018-02-15T16:12:25.830Z,25.90
2018-02-15T16:14:52.718Z,25.57
2018-02-15T16:17:19.578Z,27.27
2018-02-15T16:19:46.510Z,26.53
2018-02-15T16:22:13.399Z,27.63
2018-02-15T16:24:40.283Z,26.50
2018-02-15T16:27:07.601Z,27.40
2018-02-15T16:29:34.560Z,27.00
2018-02-15T16:32:01.492Z,26.67
2018-02-15T16:34:28.457Z,26.20
2018-02-15T16:36:55.315Z,26.07
2018-02-15T16:39:22.173Z,27.93
2018-02-15T16:41:49.055Z,29.70
2018-02-15T16:44:15.919Z,30.80
2018-02-15T16:46:42.776Z,28.40
2018-02-15T16:49:09.749Z,29.80
2018-02-15T16:51:36.655Z,30.83
2018-02-15T16:54:03.548Z,30.27
2018-02-15T16:56:30.442Z,26.87
2018-02-15T16:58:57.716Z,30.60
2018-02-15T17:01:24.952Z,27.97
2018-02-15T17:03:51.835Z,32.17
2018-02-15T17:06:18.729Z,35.60
2018-02-15T17:08:45.670Z,29.43
2018-02-15T17:11:12.657Z,26.80
2018-02-15T17:13:40.214Z,26.83
2018-02-15T17:16:07.157Z,26.00
2018-02-15T17:18:34.084Z,27.57
2018-02-15T17:21:01.002Z,26.83
2018-02-15T17:23:27.883Z,26.10
2018-02-15T17:25:54.840Z,27.63
2018-02-15T17:28:21.760Z,25.83
2018-02-15T17:30:48.659Z,23.80
2018-02-15T17:33:15.535Z,23.13
2018-02-15T17:35:42.443Z,24.40
2018-02-15T17:38:09.429Z,24.60
2018-02-15T17:40:36.289Z,22.00
2018-02-15T17:43:03.150Z,26.67
2018-02-15T17:45:30.113Z,24.70
2018-02-15T17:47:57.090Z,23.00
2018-02-15T17:50:24.509Z,23.90
2018-02-15T17:52:51.472Z,25.20
2018-02-15T17:55:18.537Z,25.60
2018-02-15T17:57:45.579Z,22.90
2018-02-15T18:00:12.567Z,22.40
2018-02-15T18:02:39.561Z,25.10
2018-02-15T18:05:06.925Z,23.90
2018-02-15T18:07:34.190Z,23.33
2018-02-15T18:10:01.095Z,23.87
2018-02-15T18:12:28.061Z,24.97
2018-02-15T18:14:55.021Z,25.80
2018-02-15T18:17:21.914Z,20.73
2018-02-15T18:19:48.816Z,22.40
2018-02-15T18:22:15.711Z,21.60
2018-02-15T18:24:42.606Z,24.40
2018-02-15T18:27:09.872Z,23.30
2018-02-15T18:29:37.135Z,23.93
2018-02-15T18:32:04.034Z,23.10
2018-02-15T18:34:31.000Z,22.40
2018-02-15T18:36:57.839Z,22.37
2018-02-15T18:39:24.810Z,21.80
2018-02-15T18:41:51.673Z,23.83
2018-02-15T18:44:18.542Z,21.43
2018-02-15T18:46:45.416Z,21.60
2018-02-15T18:49:12.291Z,21.50
2018-02-15T18:51:39.146Z,22.13
2018-02-15T18:54:06.350Z,19.80
2018-02-15T18:56:34.414Z,16.90
2018-02-15T18:59:01.685Z,16.50
2018-02-15T19:01:28.569Z,17.27
2018-02-15T19:03:55.579Z,16.87
2018-02-15T19:06:22.554Z,15.77
2018-02-15T19:08:49.831Z,18.47
2018-02-15T19:11:17.127Z,18.30
2018-02-15T19:13:44.001Z,17.70
2018-02-15T19:16:10.950Z,17.33
2018-02-15T19:18:37.908Z,16.93
2018-02-15T19:21:04.880Z,18.20
2018-02-15T19:23:31.741Z,15.60
2018-02-15T19:25:58.683Z,17.97
2018-02-15T19:28:25.632Z,17.17
2018-02-15T19:30:52.489Z,17.27
2018-02-15T19:33:19.387Z,16.53
2018-02-15T19:35:46.258Z,16.77
2018-02-15T19:38:13.129Z,18.03
2018-02-15T19:40:40.427Z,16.30
2018-02-15T19:43:07.303Z,16.80
2018-02-15T19:45:34.240Z,15.63
2018-02-15T19:48:01.113Z,15.40
2018-02-15T19:50:27.960Z,16.00
2018-02-15T19:52:54.914Z,15.13
2018-02-15T19:55:21.790Z,18.67
2018-02-15T19:57:48.657Z,18.00
2018-02-15T20:00:15.532Z,19.43
2018-02-15T20:02:42.384Z,18.77
2018-02-15T20:05:09.249Z,17.50
2018-02-15T20:07:36.157Z,16.50
2018-02-15T20:10:03.015Z,16.23
2018-02-15T20:12:29.869Z,15.87
2018-02-15T20:14:56.834Z,16.53
2018-02-15T20:17:24.399Z,15.80
2018-02-15T20:19:51.277Z,15.60
2018-02-15T20:22:18.228Z,17.00
2018-02-15T20:24:45.189Z,16.33
2018-02-15T20:27:12.057Z,16.80
2018-02-15T20:29:38.960Z,15.50
2018-02-15T20:32:06.235Z,14.27
2018-02-15T20:34:33.122Z,15.80
2018-02-15T20:36:59.999Z,16.37
2018-02-15T20:39:26.887Z,19.47
2018-02-15T20:41:53.796Z,17.03
2018-02-15T20:44:20.665Z,16.97
2018-02-15T20:46:47.550Z,15.93
2018-02-15T20:49:14.497Z,15.57
2018-02-15T20:51:41.375Z,16.73
2018-02-15T20:54:08.770Z,16.53
2018-02-15T20:56:35.657Z,16.13
2018-02-15T20:59:02.611Z,15.43
2018-02-15T21:01:29.496Z,17.87
2018-02-15T21:03:56.362Z,17.37
2018-02-15T21:06:23.308Z,17.10
2018-02-15T21:08:50.231Z,15.33
2018-02-15T21:11:17.201Z,16.90
2018-02-15T21:13:44.082Z,15.93
2018-02-15T21:16:11.069Z,16.80
2018-02-15T21:18:38.008Z,16.20
2018-02-15T21:21:04.987Z,17.13
2018-02-15T21:23:32.385Z,17.93
2018-02-15T21:25:59.672Z,17.60
2018-02-15T21:28:26.554Z,18.00
2018-02-15T21:30:53.419Z,18.80
2018-02-15T21:33:20.271Z,17.27
2018-02-15T21:35:47.201Z,17.80
2018-02-15T21:38:14.205Z,18.03
2018-02-15T21:40:41.541Z,19.10
2018-02-15T21:43:08.427Z,19.83
2018-02-15T21:45:35.312Z,18.80
2018-02-15T21:48:02.548Z,20.17
2018-02-15T21:50:30.260Z,20.13
2018-02-15T21:52:57.146Z,18.83
2018-02-15T21:55:24.017Z,19.23
2018-02-15T21:57:50.955Z,18.60
2018-02-15T22:00:17.846Z,19.67
2018-02-15T22:02:44.780Z,19.27
2018-02-15T22:05:11.872Z,21.77
2018-02-15T22:07:38.736Z,22.60
2018-02-15T22:10:05.612Z,21.00
2018-02-15T22:12:33.838Z,20.80
2018-02-15T22:15:00.712Z,20.53
2018-02-15T22:17:27.584Z,23.37
2018-02-15T22:19:54.470Z,23.07
2018-02-15T22:22:21.711Z,20.23
2018-02-15T22:24:48.619Z,19.33
2018-02-15T22:27:15.463Z,20.80
2018-02-15T22:29:42.380Z,19.47
2018-02-15T22:32:09.330Z,18.87
2018-02-15T22:34:36.229Z,19.13
2018-02-15T22:37:03.495Z,20.10
2018-02-15T22:39:30.823Z,17.33
2018-02-15T22:41:57.662Z,17.80
2018-02-15T22:44:24.555Z,19.80
2018-02-15T22:46:51.482Z,17.00
2018-02-15T22:49:18.357Z,18.33
2018-02-15T22:51:45.226Z,19.00
2018-02-15T22:54:12.109Z,18.70
2018-02-15T22:56:39.490Z,20.07
2018-02-15T22:59:06.309Z,19.57
2018-02-15T23:01:33.194Z,17.70
2018-02-15T23:04:00.445Z,18.50
2018-02-15T23:06:27.774Z,19.23
2018-02-15T23:08:54.628Z,21.30
2018-02-15T23:11:21.581Z,19.27
2018-02-15T23:13:48.534Z,19.27
2018-02-15T23:16:15.601Z,19.87
2018-02-15T23:18:42.553Z,20.07
2018-02-15T23:21:09.421Z,20.47
2018-02-15T23:23:36.317Z,21.20
2018-02-15T23:26:03.157Z,20.40
2018-02-15T23:28:30.104Z,24.47
2018-02-15T23:30:56.957Z,20.63
2018-02-15T23:33:23.801Z,21.33
2018-02-15T23:35:50.683Z,23.47
2018-02-15T23:38:17.616Z,22.80
2018-02-15T23:40:44.482Z,22.20
2018-02-15T23:43:11.532Z,25.97
2018-02-15T23:45:38.414Z,23.33
2018-02-15T23:48:05.369Z,22.33
2018-02-15T23:50:32.235Z,21.67
2018-02-15T23:52:59.169Z,21.20
2018-02-15T23:55:26.125Z,20.83
2018-02-15T23:57:53.005Z,22.10
